This is the latest recevied weather packets stored in our database for station/object VK4ZPK-13. If no packets are shown the sender has not sent any weather packets the latest 10 day(s).
| Time | Temp. | Humidity | Pressure | Rain* | Wind** | Luminosity | Snow |
|---|---|---|---|---|---|---|---|
| 1788107479 | 14.44° C | 93% | 1023.8 hPa | 0 mm | - | - | - |
| 1788105679 | 15° C | 93% | 1023.9 hPa | 0 mm | - | - | - |
| 1788103879 | 15° C | 93% | 1024 hPa | 0 mm | - | - | - |
| 1788100280 | 15° C | 92% | 1024.7 hPa | 0 mm | - | - | - |
| 1788098479 | 15.56° C | 92% | 1024.9 hPa | 0 mm | - | - | - |
| 1788096680 | 15.56° C | 92% | 1024.9 hPa | 0 mm | - | - | - |
| 1788094880 | 15.56° C | 91% | 1024.9 hPa | 0 mm | - | - | - |
| 1788093080 | 15.56° C | 91% | 1025 hPa | 0 mm | - | - | - |
| 1788089480 | 16.67° C | 90% | 1025 hPa | 0 mm | - | - | - |
| 1788087679 | 16.67° C | 89% | 1024.9 hPa | 0 mm | - | - | - |
| 1788085880 | 17.22° C | 90% | 1024.7 hPa | 0 mm | - | - | - |
| 1788084079 | 17.22° C | 90% | 1024.6 hPa | 0 mm | - | - | - |
| 1788082279 | 17.22° C | 89% | 1024.3 hPa | 0 mm | - | - | - |
| 1788080479 | 17.78° C | 87% | 1024.1 hPa | 0 mm | - | - | - |
| 1788078680 | 18.33° C | 85% | 1023.8 hPa | 0 mm | - | - | - |
| 1788076880 | 18.33° C | 84% | 1023.6 hPa | 0 mm | - | - | - |
| 1788075080 | 18.89° C | 82% | 1023.2 hPa | 0 mm | - | - | - |
| 1788073279 | 19.44° C | 85% | 1022.8 hPa | 0 mm | - | - | - |
| 1788071480 | 18.89° C | 85% | 1022.8 hPa | 0 mm | - | - | - |
| 1788069679 | 18.89° C | 83% | 1022.7 hPa | 0 mm | - | - | - |
| 1788067880 | 20.56° C | 75% | 1022.7 hPa | 0 mm | - | - | - |
| 1788066080 | 20.56° C | 75% | 1022.6 hPa | 0 mm | - | - | - |
| 1788064280 | 20.56° C | 75% | 1022.7 hPa | 0 mm | - | - | - |
| 1787948203 | 13.89° C | 93% | 1021.7 hPa | 0 mm | - | - | - |
| 1787941003 | 15° C | 92% | 1020.7 hPa | 0 mm | - | - | - |
* Rain latest hour (hover to see other rain measurements)
** Current wind speed in m/s (hover to see current wind gust speed)